Saint-Ludger, Canada
Current Conditions -  °F | °C
As of 11:31 AM on Thursday 23 Oct 2014 (Local Time) from CYSC Reporting Station
Overcast Overcast  
Wind Chill: 37°   Ceiling: 1800
Heat Index: 43°   Visibility: 9mi
Dew Point: 43°   Wind: 12mph
Humidity: 100%   Direction: 40°NE
Pressure: 29.98"   Gusts: NA
Location:  45.75°N, 70.7°W
Report Text: CYSC 231531Z AUTO 04010KT 9SM FEW012 BKN018 OVC050 06/06 A2998 RMK PCPN MISG SLP158
Loading
Personal Weather Stations






























Interactive Weather Map
Tropical Storm Tracking
New forecast layout! Learn more

10-Day Weather Forecast

Advertisements
Track Severe Weather on mobile